sensor_id;sensor_type;location;lat;lon;timestamp;pressure;altitude;pressure_sealevel;temperature;humidity
79221;BME280;72175;52.118;5.406;2024-03-23T00:54:19;101155.84;;;14.82;64.21
79221;BME280;72175;52.118;5.406;2024-03-23T00:56:45;101147.00;;;14.81;64.31
79221;BME280;72175;52.118;5.406;2024-03-23T00:59:12;101142.50;;;14.82;64.02
79221;BME280;72175;52.118;5.406;2024-03-23T01:01:39;101147.00;;;14.81;63.92
79221;BME280;72175;52.118;5.406;2024-03-23T01:04:06;101143.50;;;14.81;64.17
79221;BME280;72175;52.118;5.406;2024-03-23T01:06:31;101144.34;;;14.81;64.16
79221;BME280;72175;52.118;5.406;2024-03-23T01:08:57;101145.34;;;14.80;64.18
79221;BME280;72175;52.118;5.406;2024-03-23T01:11:22;101148.00;;;14.80;64.43
79221;BME280;72175;52.118;5.406;2024-03-23T01:13:48;101141.00;;;14.79;64.29
79221;BME280;72175;52.118;5.406;2024-03-23T01:16:13;101134.69;;;14.80;64.07
79221;BME280;72175;52.118;5.406;2024-03-23T01:18:40;101125.00;;;14.79;64.21
79221;BME280;72175;52.118;5.406;2024-03-23T01:21:06;101127.69;;;14.79;64.09
79221;BME280;72175;52.118;5.406;2024-03-23T01:23:32;101130.34;;;14.79;64.16
79221;BME280;72175;52.118;5.406;2024-03-23T01:26:14;101119.69;;;14.79;64.42
79221;BME280;72175;52.118;5.406;2024-03-23T01:29:09;101115.34;;;14.78;64.07
79221;BME280;72175;52.118;5.406;2024-03-23T01:31:41;101119.69;;;14.79;64.25
79221;BME280;72175;52.118;5.406;2024-03-23T01:34:06;101110.03;;;14.78;64.03
79221;BME280;72175;52.118;5.406;2024-03-23T01:36:33;101103.84;;;14.78;64.32
79221;BME280;72175;52.118;5.406;2024-03-23T01:38:59;101102.03;;;14.78;64.14
79221;BME280;72175;52.118;5.406;2024-03-23T01:41:24;101088.91;;;14.77;63.94
79221;BME280;72175;52.118;5.406;2024-03-23T01:43:50;101090.53;;;14.78;63.91
79221;BME280;72175;52.118;5.406;2024-03-23T01:46:16;101077.41;;;14.76;64.22
79221;BME280;72175;52.118;5.406;2024-03-23T01:48:42;101081.75;;;14.77;64.15
79221;BME280;72175;52.118;5.406;2024-03-23T01:51:10;101081.91;;;14.76;63.76
79221;BME280;72175;52.118;5.406;2024-03-23T01:53:39;101077.41;;;14.76;64.15
79221;BME280;72175;52.118;5.406;2024-03-23T01:56:05;101080.06;;;14.76;63.80
79221;BME280;72175;52.118;5.406;2024-03-23T01:58:30;101080.06;;;14.76;63.79
79221;BME280;72175;52.118;5.406;2024-03-23T02:00:57;101080.91;;;14.77;63.97
79221;BME280;72175;52.118;5.406;2024-03-23T02:05:50;101080.91;;;14.77;64.17
79221;BME280;72175;52.118;5.406;2024-03-23T02:08:17;101076.56;;;14.76;64.34
79221;BME280;72175;52.118;5.406;2024-03-23T02:10:43;101070.41;;;14.75;64.04
79221;BME280;72175;52.118;5.406;2024-03-23T02:13:08;101082.75;;;14.76;64.11
79221;BME280;72175;52.118;5.406;2024-03-23T02:15:34;101072.25;;;14.75;64.15
79221;BME280;72175;52.118;5.406;2024-03-23T02:18:00;101081.06;;;14.75;64.09
79221;BME280;72175;52.118;5.406;2024-03-23T02:20:25;101075.75;;;14.75;64.27
79221;BME280;72175;52.118;5.406;2024-03-23T02:22:52;101070.41;;;14.75;64.07
79221;BME280;72175;52.118;5.406;2024-03-23T02:25:20;101074.91;;;14.75;64.17
79221;BME280;72175;52.118;5.406;2024-03-23T02:27:46;101068.75;;;14.74;64.19
79221;BME280;72175;52.118;5.406;2024-03-23T02:30:11;101062.56;;;14.74;64.20
79221;BME280;72175;52.118;5.406;2024-03-23T02:32:37;101061.59;;;14.75;64.08
79221;BME280;72175;52.118;5.406;2024-03-23T02:35:03;101056.25;;;14.75;63.90
79221;BME280;72175;52.118;5.406;2024-03-23T02:37:30;101048.41;;;14.73;63.98
79221;BME280;72175;52.118;5.406;2024-03-23T02:39:58;101057.41;;;14.72;64.26
79221;BME280;72175;52.118;5.406;2024-03-23T02:42:23;101056.41;;;14.73;63.78
79221;BME280;72175;52.118;5.406;2024-03-23T02:44:52;101060.91;;;14.73;64.03
79221;BME280;72175;52.118;5.406;2024-03-23T02:47:17;101058.25;;;14.73;63.96
79221;BME280;72175;52.118;5.406;2024-03-23T02:49:43;101058.25;;;14.73;64.19
79221;BME280;72175;52.118;5.406;2024-03-23T02:52:08;101053.91;;;14.72;63.95
79221;BME280;72175;52.118;5.406;2024-03-23T02:54:34;101067.22;;;14.72;63.92
79221;BME280;72175;52.118;5.406;2024-03-23T02:56:59;101056.56;;;14.72;63.92
79221;BME280;72175;52.118;5.406;2024-03-23T02:59:25;101058.41;;;14.71;63.99
79221;BME280;72175;52.118;5.406;2024-03-23T03:01:50;101061.91;;;14.72;64.00
79221;BME280;72175;52.118;5.406;2024-03-23T03:04:19;101059.22;;;14.72;63.86
79221;BME280;72175;52.118;5.406;2024-03-23T03:06:47;101046.91;;;14.70;63.79
79221;BME280;72175;52.118;5.406;2024-03-23T03:09:16;101059.38;;;14.70;63.85
79221;BME280;72175;52.118;5.406;2024-03-23T03:11:42;101057.72;;;14.69;63.71
79221;BME280;72175;52.118;5.406;2024-03-23T03:14:07;101057.72;;;14.69;63.68
79221;BME280;72175;52.118;5.406;2024-03-23T03:16:33;101055.06;;;14.69;64.04
79221;BME280;72175;52.118;5.406;2024-03-23T03:18:59;101051.41;;;14.70;63.94
79221;BME280;72175;52.118;5.406;2024-03-23T03:21:24;101052.38;;;14.69;64.15
79221;BME280;72175;52.118;5.406;2024-03-23T03:23:50;101062.06;;;14.70;63.85
79221;BME280;72175;52.118;5.406;2024-03-23T03:26:18;101055.06;;;14.69;64.00
79221;BME280;72175;52.118;5.406;2024-03-23T03:28:47;101050.72;;;14.68;63.93
79221;BME280;72175;52.118;5.406;2024-03-23T03:31:15;101052.38;;;14.69;63.93
79221;BME280;72175;52.118;5.406;2024-03-23T03:33:42;101048.06;;;14.68;64.10
79221;BME280;72175;52.118;5.406;2024-03-23T03:36:08;101048.06;;;14.68;63.74
79221;BME280;72175;52.118;5.406;2024-03-23T03:38:33;101047.22;;;14.67;64.09
79221;BME280;72175;52.118;5.406;2024-03-23T03:41:03;101039.22;;;14.67;63.74
79221;BME280;72175;52.118;5.406;2024-03-23T03:43:33;101038.41;;;14.67;63.72
79221;BME280;72175;52.118;5.406;2024-03-23T03:46:27;101034.06;;;14.66;63.95
79221;BME280;72175;52.118;5.406;2024-03-23T03:49:01;101033.22;;;14.65;63.87
79221;BME280;72175;52.118;5.406;2024-03-23T03:51:40;101030.56;;;14.65;63.74
79221;BME280;72175;52.118;5.406;2024-03-23T03:54:06;101026.06;;;14.66;63.72
79221;BME280;72175;52.118;5.406;2024-03-23T03:56:34;101024.41;;;14.65;63.81
79221;BME280;72175;52.118;5.406;2024-03-23T03:58:59;101025.22;;;14.65;63.85
79221;BME280;72175;52.118;5.406;2024-03-23T04:01:24;101022.72;;;14.64;63.67
79221;BME280;72175;52.118;5.406;2024-03-23T04:03:54;101025.38;;;14.64;63.53
79221;BME280;72175;52.118;5.406;2024-03-23T04:06:20;101025.38;;;14.64;63.57
79221;BME280;72175;52.118;5.406;2024-03-23T04:08:49;101025.38;;;14.64;63.68
79221;BME280;72175;52.118;5.406;2024-03-23T04:11:15;101020.91;;;14.64;63.81
79221;BME280;72175;52.118;5.406;2024-03-23T04:13:40;101021.06;;;14.63;63.43
79221;BME280;72175;52.118;5.406;2024-03-23T04:16:07;101019.22;;;14.63;63.67
79221;BME280;72175;52.118;5.406;2024-03-23T04:18:33;101009.56;;;14.62;63.51
79221;BME280;72175;52.118;5.406;2024-03-23T04:20:58;101015.72;;;14.63;63.62
79221;BME280;72175;52.118;5.406;2024-03-23T04:23:24;101012.22;;;14.62;63.52
79221;BME280;72175;52.118;5.406;2024-03-23T04:25:55;101014.06;;;14.62;63.69
79221;BME280;72175;52.118;5.406;2024-03-23T04:28:20;101007.09;;;14.61;63.74
79221;BME280;72175;52.118;5.406;2024-03-23T04:30:46;101006.06;;;14.62;63.54
79221;BME280;72175;52.118;5.406;2024-03-23T04:33:11;101011.41;;;14.62;63.52
79221;BME280;72175;52.118;5.406;2024-03-23T04:35:37;101010.56;;;14.61;63.69
79221;BME280;72175;52.118;5.406;2024-03-23T04:38:02;100997.25;;;14.61;63.69
79221;BME280;72175;52.118;5.406;2024-03-23T04:40:28;101011.59;;;14.60;63.89
79221;BME280;72175;52.118;5.406;2024-03-23T04:42:53;101010.75;;;14.60;63.32
79221;BME280;72175;52.118;5.406;2024-03-23T04:45:19;101003.59;;;14.60;63.56
79221;BME280;72175;52.118;5.406;2024-03-23T04:47:45;101000.09;;;14.60;64.02
79221;BME280;72175;52.118;5.406;2024-03-23T04:50:10;101013.41;;;14.60;63.75
79221;BME280;72175;52.118;5.406;2024-03-23T04:52:39;101012.56;;;14.59;63.55
79221;BME280;72175;52.118;5.406;2024-03-23T04:55:05;101005.59;;;14.58;63.73
79221;BME280;72175;52.118;5.406;2024-03-23T04:57:30;100999.41;;;14.58;63.67
79221;BME280;72175;52.118;5.406;2024-03-23T04:59:56;101005.59;;;14.58;63.48
79221;BME280;72175;52.118;5.406;2024-03-23T05:02:22;100999.41;;;14.58;63.40
79221;BME280;72175;52.118;5.406;2024-03-23T05:04:49;100998.44;;;14.59;63.46
79221;BME280;72175;52.118;5.406;2024-03-23T05:07:14;101003.06;;;14.57;63.43
79221;BME280;72175;52.118;5.406;2024-03-23T05:09:40;100997.75;;;14.57;63.91
79221;BME280;72175;52.118;5.406;2024-03-23T05:12:05;101003.91;;;14.57;63.59
79221;BME280;72175;52.118;5.406;2024-03-23T05:14:31;101004.06;;;14.56;63.69
79221;BME280;72175;52.118;5.406;2024-03-23T05:16:58;101001.25;;;14.57;63.46
79221;BME280;72175;52.118;5.406;2024-03-23T05:19:23;100998.75;;;14.56;63.49
79221;BME280;72175;52.118;5.406;2024-03-23T05:21:49;101008.41;;;14.57;63.71
79221;BME280;72175;52.118;5.406;2024-03-23T05:24:23;101012.88;;;14.56;63.57
79221;BME280;72175;52.118;5.406;2024-03-23T05:26:49;101003.22;;;14.55;63.41
79221;BME280;72175;52.118;5.406;2024-03-23T05:29:15;101013.88;;;14.55;63.64
79221;BME280;72175;52.118;5.406;2024-03-23T05:31:42;101008.72;;;14.54;63.68
79221;BME280;72175;52.118;5.406;2024-03-23T05:34:11;101011.38;;;14.54;63.31
79221;BME280;72175;52.118;5.406;2024-03-23T05:36:37;101011.38;;;14.54;63.38
79221;BME280;72175;52.118;5.406;2024-03-23T05:39:05;101015.88;;;14.53;63.65
79221;BME280;72175;52.118;5.406;2024-03-23T05:41:31;101006.06;;;14.54;63.38
79221;BME280;72175;52.118;5.406;2024-03-23T05:43:56;101012.38;;;14.53;63.14
79221;BME280;72175;52.118;5.406;2024-03-23T05:46:22;101015.88;;;14.53;63.47
79221;BME280;72175;52.118;5.406;2024-03-23T05:48:50;101015.03;;;14.53;63.67
79221;BME280;72175;52.118;5.406;2024-03-23T05:51:16;101006.22;;;14.52;63.14
79221;BME280;72175;52.118;5.406;2024-03-23T05:53:43;101005.38;;;14.52;63.12
79221;BME280;72175;52.118;5.406;2024-03-23T05:56:08;101003.53;;;14.52;63.45
79221;BME280;72175;52.118;5.406;2024-03-23T05:58:41;101002.72;;;14.52;63.27
79221;BME280;72175;52.118;5.406;2024-03-23T06:01:07;101000.88;;;14.52;63.33
79221;BME280;72175;52.118;5.406;2024-03-23T06:03:33;101001.88;;;14.51;62.98
79221;BME280;72175;52.118;5.406;2024-03-23T06:05:58;100999.22;;;14.51;63.11
79221;BME280;72175;52.118;5.406;2024-03-23T06:08:24;100999.22;;;14.51;63.58
79221;BME280;72175;52.118;5.406;2024-03-23T06:11:05;100999.22;;;14.51;63.27
79221;BME280;72175;52.118;5.406;2024-03-23T06:13:58;101006.38;;;14.51;63.46
79221;BME280;72175;52.118;5.406;2024-03-23T06:16:32;101005.53;;;14.50;63.61
79221;BME280;72175;52.118;5.406;2024-03-23T06:18:58;100999.38;;;14.50;63.52
79221;BME280;72175;52.118;5.406;2024-03-23T06:21:24;101006.38;;;14.51;63.14
79221;BME280;72175;52.118;5.406;2024-03-23T06:23:53;101003.84;;;14.49;63.33
79221;BME280;72175;52.118;5.406;2024-03-23T06:26:20;101006.53;;;14.49;62.90
79221;BME280;72175;52.118;5.406;2024-03-23T06:28:48;100999.38;;;14.50;63.02
79221;BME280;72175;52.118;5.406;2024-03-23T06:31:13;100988.88;;;14.48;62.99
79221;BME280;72175;52.118;5.406;2024-03-23T06:33:39;100990.53;;;14.49;63.39
79221;BME280;72175;52.118;5.406;2024-03-23T06:36:05;100989.72;;;14.49;63.04
79221;BME280;72175;52.118;5.406;2024-03-23T06:38:31;100980.06;;;14.48;62.98
79221;BME280;72175;52.118;5.406;2024-03-23T06:40:56;100988.03;;;14.48;63.07
79221;BME280;72175;52.118;5.406;2024-03-23T06:43:23;100988.88;;;14.48;62.93
79221;BME280;72175;52.118;5.406;2024-03-23T06:45:52;100994.19;;;14.48;63.02
79221;BME280;72175;52.118;5.406;2024-03-23T06:48:18;100981.88;;;14.47;62.88
79221;BME280;72175;52.118;5.406;2024-03-23T06:50:44;100981.88;;;14.47;63.12
79221;BME280;72175;52.118;5.406;2024-03-23T06:53:12;100988.03;;;14.48;63.44
79221;BME280;72175;52.118;5.406;2024-03-23T06:55:38;100988.19;;;14.46;63.00
79221;BME280;72175;52.118;5.406;2024-03-23T06:58:03;100986.38;;;14.47;63.52
79221;BME280;72175;52.118;5.406;2024-03-23T07:00:29;100990.03;;;14.46;63.09
79221;BME280;72175;52.118;5.406;2024-03-23T07:02:56;100989.88;;;14.47;63.23
79221;BME280;72175;52.118;5.406;2024-03-23T07:05:21;100996.19;;;14.46;63.03
79221;BME280;72175;52.118;5.406;2024-03-23T07:07:47;100993.53;;;14.46;63.22
79221;BME280;72175;52.118;5.406;2024-03-23T07:10:12;101002.34;;;14.47;63.33
79221;BME280;72175;52.118;5.406;2024-03-23T07:12:38;100996.19;;;14.46;63.11
79221;BME280;72175;52.118;5.406;2024-03-23T07:15:04;100992.69;;;14.46;63.20
79221;BME280;72175;52.118;5.406;2024-03-23T07:17:30;100990.03;;;14.46;63.11
79221;BME280;72175;52.118;5.406;2024-03-23T07:19:55;100992.69;;;14.46;62.99
79221;BME280;72175;52.118;5.406;2024-03-23T07:22:21;100990.03;;;14.46;62.92
79221;BME280;72175;52.118;5.406;2024-03-23T07:24:47;100994.50;;;14.45;63.16
79221;BME280;72175;52.118;5.406;2024-03-23T07:27:12;100986.53;;;14.45;63.16
79221;BME280;72175;52.118;5.406;2024-03-23T07:29:41;100994.50;;;14.45;63.14
79221;BME280;72175;52.118;5.406;2024-03-23T07:32:10;100996.38;;;14.45;63.25
79221;BME280;72175;52.118;5.406;2024-03-23T07:34:45;100992.88;;;14.44;63.25
79221;BME280;72175;52.118;5.406;2024-03-23T07:37:11;100992.88;;;14.44;63.09
79221;BME280;72175;52.118;5.406;2024-03-23T07:39:40;100989.38;;;14.44;62.75
79221;BME280;72175;52.118;5.406;2024-03-23T07:42:06;100986.72;;;14.44;63.05
79221;BME280;72175;52.118;5.406;2024-03-23T07:44:31;100994.69;;;14.44;63.00
79221;BME280;72175;52.118;5.406;2024-03-23T07:46:59;100993.88;;;14.43;63.12
79221;BME280;72175;52.118;5.406;2024-03-23T07:49:33;100992.88;;;14.44;63.14
79221;BME280;72175;52.118;5.406;2024-03-23T07:51:59;100996.38;;;14.45;63.22
79221;BME280;72175;52.118;5.406;2024-03-23T07:54:27;100998.19;;;14.44;63.18
79221;BME280;72175;52.118;5.406;2024-03-23T07:56:53;100992.03;;;14.44;63.02
79221;BME280;72175;52.118;5.406;2024-03-23T07:59:20;101002.69;;;14.44;62.96
79221;BME280;72175;52.118;5.406;2024-03-23T08:01:45;100990.38;;;14.43;62.99
79221;BME280;72175;52.118;5.406;2024-03-23T08:04:19;100990.38;;;14.43;63.00
79221;BME280;72175;52.118;5.406;2024-03-23T08:06:44;100993.03;;;14.43;62.83
79221;BME280;72175;52.118;5.406;2024-03-23T08:09:09;100988.53;;;14.43;63.23
79221;BME280;72175;52.118;5.406;2024-03-23T08:11:35;100979.72;;;14.43;63.07
79221;BME280;72175;52.118;5.406;2024-03-23T08:14:01;100986.88;;;14.42;62.84
79221;BME280;72175;52.118;5.406;2024-03-23T08:16:29;100986.88;;;14.42;63.25
79221;BME280;72175;52.118;5.406;2024-03-23T08:18:55;100990.22;;;14.44;63.26
79221;BME280;72175;52.118;5.406;2024-03-23T08:21:23;100984.22;;;14.42;62.87
79221;BME280;72175;52.118;5.406;2024-03-23T08:23:51;100984.22;;;14.42;62.82
79221;BME280;72175;52.118;5.406;2024-03-23T08:26:16;100987.72;;;14.43;62.82
79221;BME280;72175;52.118;5.406;2024-03-23T08:28:43;100987.72;;;14.43;62.99
79221;BME280;72175;52.118;5.406;2024-03-23T08:31:09;100991.22;;;14.43;62.93
79221;BME280;72175;52.118;5.406;2024-03-23T08:33:35;100990.38;;;14.43;62.89
79221;BME280;72175;52.118;5.406;2024-03-23T08:36:01;100995.69;;;14.43;62.94
79221;BME280;72175;52.118;5.406;2024-03-23T08:38:31;100988.69;;;14.42;62.92
79221;BME280;72175;52.118;5.406;2024-03-23T08:41:01;100987.88;;;14.41;62.99
79221;BME280;72175;52.118;5.406;2024-03-23T08:43:28;100988.69;;;14.42;62.83
79221;BME280;72175;52.118;5.406;2024-03-23T08:46:06;100985.19;;;14.41;62.89
79221;BME280;72175;52.118;5.406;2024-03-23T08:48:34;100994.03;;;14.42;62.75
79221;BME280;72175;52.118;5.406;2024-03-23T08:53:29;100987.88;;;14.41;63.05
79221;BME280;72175;52.118;5.406;2024-03-23T08:55:59;100980.72;;;14.42;62.71
79221;BME280;72175;52.118;5.406;2024-03-23T08:58:31;100993.19;;;14.41;63.17
79221;BME280;72175;52.118;5.406;2024-03-23T09:01:07;100979.88;;;14.41;62.82
79221;BME280;72175;52.118;5.406;2024-03-23T09:03:32;100988.69;;;14.42;62.82
79221;BME280;72175;52.118;5.406;2024-03-23T09:05:58;100977.22;;;14.41;62.69
79221;BME280;72175;52.118;5.406;2024-03-23T09:08:44;100972.72;;;14.42;63.19
79221;BME280;72175;52.118;5.406;2024-03-23T09:11:28;100980.72;;;14.42;62.86
79221;BME280;72175;52.118;5.406;2024-03-23T09:14:03;100980.72;;;14.42;62.66
79221;BME280;72175;52.118;5.406;2024-03-23T09:16:35;100978.06;;;14.42;62.63
79221;BME280;72175;52.118;5.406;2024-03-23T09:19:00;100981.56;;;14.42;62.81
79221;BME280;72175;52.118;5.406;2024-03-23T09:21:27;100985.03;;;14.43;62.64
79221;BME280;72175;52.118;5.406;2024-03-23T09:23:52;100980.72;;;14.42;62.57
79221;BME280;72175;52.118;5.406;2024-03-23T09:26:18;100978.88;;;14.42;62.65
79221;BME280;72175;52.118;5.406;2024-03-23T09:28:49;100976.22;;;14.42;62.88
79221;BME280;72175;52.118;5.406;2024-03-23T09:31:15;100980.56;;;14.43;63.12
79221;BME280;72175;52.118;5.406;2024-03-23T09:33:41;100973.56;;;14.42;62.66
79221;BME280;72175;52.118;5.406;2024-03-23T09:36:07;100970.91;;;14.42;62.99
79221;BME280;72175;52.118;5.406;2024-03-23T09:38:36;100976.22;;;14.42;63.09
79221;BME280;72175;52.118;5.406;2024-03-23T09:41:07;100974.41;;;14.43;62.89
79221;BME280;72175;52.118;5.406;2024-03-23T09:43:33;100971.72;;;14.43;62.40
79221;BME280;72175;52.118;5.406;2024-03-23T09:45:59;100982.22;;;14.44;62.53
79221;BME280;72175;52.118;5.406;2024-03-23T09:48:24;100990.22;;;14.44;62.68
79221;BME280;72175;52.118;5.406;2024-03-23T09:50:50;100992.88;;;14.44;62.65
79221;BME280;72175;52.118;5.406;2024-03-23T09:53:18;100976.06;;;14.44;62.49
79221;BME280;72175;52.118;5.406;2024-03-23T09:55:44;100984.88;;;14.44;62.41
79221;BME280;72175;52.118;5.406;2024-03-23T09:58:15;100976.06;;;14.44;62.58
79221;BME280;72175;52.118;5.406;2024-03-23T10:00:58;100980.56;;;14.43;62.68
79221;BME280;72175;52.118;5.406;2024-03-23T10:03:31;100973.41;;;14.44;62.50
79221;BME280;72175;52.118;5.406;2024-03-23T10:06:03;100962.56;;;14.45;62.46
79221;BME280;72175;52.118;5.406;2024-03-23T10:08:29;100964.44;;;14.45;62.39
79221;BME280;72175;52.118;5.406;2024-03-23T10:10:56;100959.09;;;14.45;62.38
79221;BME280;72175;52.118;5.406;2024-03-23T10:13:25;100961.75;;;14.45;62.29
79221;BME280;72175;52.118;5.406;2024-03-23T10:15:58;100962.41;;;14.47;62.07
79221;BME280;72175;52.118;5.406;2024-03-23T10:18:25;100960.59;;;14.47;62.38
79221;BME280;72175;52.118;5.406;2024-03-23T10:21:00;100955.25;;;14.47;62.23
79221;BME280;72175;52.118;5.406;2024-03-23T10:23:38;100952.44;;;14.49;62.52
79221;BME280;72175;52.118;5.406;2024-03-23T10:26:20;100965.59;;;14.50;62.55
79221;BME280;72175;52.118;5.406;2024-03-23T10:28:59;100956.78;;;14.50;62.50
79221;BME280;72175;52.118;5.406;2024-03-23T10:31:36;100968.25;;;14.50;62.45
79221;BME280;72175;52.118;5.406;2024-03-23T10:34:02;100961.94;;;14.51;62.11
79221;BME280;72175;52.118;5.406;2024-03-23T10:36:29;100961.94;;;14.51;62.44
79221;BME280;72175;52.118;5.406;2024-03-23T10:38:59;100956.59;;;14.51;62.31
79221;BME280;72175;52.118;5.406;2024-03-23T10:41:28;100952.94;;;14.52;61.96
79221;BME280;72175;52.118;5.406;2024-03-23T10:43:55;100960.78;;;14.54;62.29
79221;BME280;72175;52.118;5.406;2024-03-23T10:46:21;100947.63;;;14.52;62.05
79221;BME280;72175;52.118;5.406;2024-03-23T10:48:46;100952.78;;;14.54;61.99
79221;BME280;72175;52.118;5.406;2024-03-23T10:51:13;100959.13;;;14.53;62.07
79221;BME280;72175;52.118;5.406;2024-03-23T10:53:39;100962.63;;;14.53;62.16
79221;BME280;72175;52.118;5.406;2024-03-23T10:56:06;100987.41;;;14.54;62.26
79221;BME280;72175;52.118;5.406;2024-03-23T10:58:41;100984.75;;;14.54;61.93
79221;BME280;72175;52.118;5.406;2024-03-23T11:01:35;100978.59;;;14.53;61.98
79221;BME280;72175;52.118;5.406;2024-03-23T11:04:00;100979.59;;;14.52;61.91
79221;BME280;72175;52.118;5.406;2024-03-23T11:06:38;100973.25;;;14.53;62.05
79221;BME280;72175;52.118;5.406;2024-03-23T11:09:04;100968.94;;;14.52;62.13
79221;BME280;72175;52.118;5.406;2024-03-23T11:11:49;100975.09;;;14.53;62.15
79221;BME280;72175;52.118;5.406;2024-03-23T11:14:22;100966.94;;;14.54;61.75
79221;BME280;72175;52.118;5.406;2024-03-23T11:17:08;100968.78;;;14.54;62.32
79221;BME280;72175;52.118;5.406;2024-03-23T11:19:37;100953.78;;;14.53;62.06
79221;BME280;72175;52.118;5.406;2024-03-23T11:22:07;100944.13;;;14.52;62.00
79221;BME280;72175;52.118;5.406;2024-03-23T11:24:33;100944.97;;;14.52;62.25
79221;BME280;72175;52.118;5.406;2024-03-23T11:27:02;100966.28;;;14.52;62.33
79221;BME280;72175;52.118;5.406;2024-03-23T11:29:41;100956.59;;;14.51;62.17
79221;BME280;72175;52.118;5.406;2024-03-23T11:32:12;100962.63;;;14.53;62.29
79221;BME280;72175;52.118;5.406;2024-03-23T11:34:38;100948.47;;;14.53;62.08
79221;BME280;72175;52.118;5.406;2024-03-23T11:37:04;100949.47;;;14.52;62.40
79221;BME280;72175;52.118;5.406;2024-03-23T11:39:31;100939.63;;;14.52;62.17
79221;BME280;72175;52.118;5.406;2024-03-23T11:41:56;100935.16;;;14.53;62.36
79221;BME280;72175;52.118;5.406;2024-03-23T11:44:23;100925.50;;;14.52;62.23
79221;BME280;72175;52.118;5.406;2024-03-23T11:46:50;100926.31;;;14.52;62.38
79221;BME280;72175;52.118;5.406;2024-03-23T11:49:28;100933.31;;;14.53;62.50
79221;BME280;72175;52.118;5.406;2024-03-23T11:51:58;100931.66;;;14.52;62.06
79221;BME280;72175;52.118;5.406;2024-03-23T11:54:25;100929.00;;;14.52;62.06
79221;BME280;72175;52.118;5.406;2024-03-23T11:56:58;100922.84;;;14.52;62.12
79221;BME280;72175;52.118;5.406;2024-03-23T11:59:35;100923.66;;;14.52;62.04
79221;BME280;72175;52.118;5.406;2024-03-23T12:02:09;100930.81;;;14.52;62.23
79221;BME280;72175;52.118;5.406;2024-03-23T12:04:37;100922.00;;;14.51;62.02
79221;BME280;72175;52.118;5.406;2024-03-23T12:07:15;100918.34;;;14.52;62.35
79221;BME280;72175;52.118;5.406;2024-03-23T12:09:41;100909.53;;;14.52;62.11
79221;BME280;72175;52.118;5.406;2024-03-23T12:12:14;100916.66;;;14.51;62.40
79221;BME280;72175;52.118;5.406;2024-03-23T12:14:44;100924.66;;;14.51;62.07
79221;BME280;72175;52.118;5.406;2024-03-23T12:17:14;100927.31;;;14.51;62.42
79221;BME280;72175;52.118;5.406;2024-03-23T12:19:40;100919.34;;;14.51;62.19
79221;BME280;72175;52.118;5.406;2024-03-23T12:22:08;100918.50;;;14.51;62.29
79221;BME280;72175;52.118;5.406;2024-03-23T12:24:36;100917.50;;;14.52;62.13
79221;BME280;72175;52.118;5.406;2024-03-23T12:27:02;100917.50;;;14.52;61.97
79221;BME280;72175;52.118;5.406;2024-03-23T12:29:31;100906.03;;;14.51;62.42
79221;BME280;72175;52.118;5.406;2024-03-23T12:32:01;100892.72;;;14.51;62.30
79221;BME280;72175;52.118;5.406;2024-03-23T12:34:27;100891.88;;;14.51;62.22
79221;BME280;72175;52.118;5.406;2024-03-23T12:36:56;100901.69;;;14.50;62.60
79221;BME280;72175;52.118;5.406;2024-03-23T12:39:22;100893.53;;;14.52;62.41
79221;BME280;72175;52.118;5.406;2024-03-23T12:41:48;100892.72;;;14.51;62.29
79221;BME280;72175;52.118;5.406;2024-03-23T12:44:13;100895.38;;;14.51;62.50
79221;BME280;72175;52.118;5.406;2024-03-23T12:46:41;100893.69;;;14.50;62.32
79221;BME280;72175;52.118;5.406;2024-03-23T12:49:07;100900.84;;;14.50;62.44
79221;BME280;72175;52.118;5.406;2024-03-23T12:51:33;100900.84;;;14.50;62.56
79221;BME280;72175;52.118;5.406;2024-03-23T12:53:58;100895.53;;;14.50;62.50
79221;BME280;72175;52.118;5.406;2024-03-23T12:56:24;100898.19;;;14.50;62.90
79221;BME280;72175;52.118;5.406;2024-03-23T12:58:50;100897.19;;;14.51;62.86
79221;BME280;72175;52.118;5.406;2024-03-23T13:01:18;100888.38;;;14.50;62.46
79221;BME280;72175;52.118;5.406;2024-03-23T13:03:50;100892.88;;;14.50;62.57
79221;BME280;72175;52.118;5.406;2024-03-23T13:06:21;100886.72;;;14.49;62.43
79221;BME280;72175;52.118;5.406;2024-03-23T13:08:47;100895.53;;;14.50;62.70
79221;BME280;72175;52.118;5.406;2024-03-23T13:11:15;100893.69;;;14.50;62.90
79221;BME280;72175;52.118;5.406;2024-03-23T13:13:41;100889.38;;;14.49;62.72
79221;BME280;72175;52.118;5.406;2024-03-23T13:16:08;100883.06;;;14.50;62.47
79221;BME280;72175;52.118;5.406;2024-03-23T13:18:33;100894.69;;;14.49;62.89
79221;BME280;72175;52.118;5.406;2024-03-23T13:20:59;100906.19;;;14.50;62.68
79221;BME280;72175;52.118;5.406;2024-03-23T13:23:25;100901.84;;;14.49;62.39
79221;BME280;72175;52.118;5.406;2024-03-23T13:25:55;100910.66;;;14.49;62.80
79221;BME280;72175;52.118;5.406;2024-03-23T13:28:24;100927.47;;;14.50;62.79
79221;BME280;72175;52.118;5.406;2024-03-23T13:30:51;100938.28;;;14.48;62.83
79221;BME280;72175;52.118;5.406;2024-03-23T13:33:17;100944.44;;;14.49;62.58
79221;BME280;72175;52.118;5.406;2024-03-23T13:35:52;100927.47;;;14.50;62.56
79221;BME280;72175;52.118;5.406;2024-03-23T13:38:18;100907.16;;;14.49;62.66
79221;BME280;72175;52.118;5.406;2024-03-23T13:43:20;100910.81;;;14.48;62.77
79221;BME280;72175;52.118;5.406;2024-03-23T13:45:52;100907.34;;;14.47;62.47
79221;BME280;72175;52.118;5.406;2024-03-23T13:48:24;100905.50;;;14.48;62.65
79221;BME280;72175;52.118;5.406;2024-03-23T13:51:03;100898.34;;;14.48;62.88
79221;BME280;72175;52.118;5.406;2024-03-23T13:53:30;100894.84;;;14.48;63.02
79221;BME280;72175;52.118;5.406;2024-03-23T13:55:56;100891.34;;;14.47;62.84